createdAt,value
2018-09-29T00:01:35.849Z,6.92
2018-09-29T00:04:39.033Z,6.83
2018-09-29T00:07:42.174Z,6.84
2018-09-29T00:10:45.407Z,6.85
2018-09-29T00:13:48.566Z,6.81
2018-09-29T00:16:51.661Z,7.13
2018-09-29T00:19:54.850Z,7.09
2018-09-29T00:22:58.053Z,6.85
2018-09-29T00:26:01.201Z,6.77
2018-09-29T00:29:04.320Z,6.79
2018-09-29T00:32:07.409Z,6.49
2018-09-29T00:35:10.609Z,6.77
2018-09-29T00:38:13.736Z,6.64
2018-09-29T00:41:16.875Z,6.53
2018-09-29T00:44:20.070Z,6.82
2018-09-29T00:47:23.163Z,5.87
2018-09-29T00:50:26.359Z,5.88
2018-09-29T00:53:29.473Z,6.07
2018-09-29T00:56:32.608Z,6.39
2018-09-29T00:59:35.867Z,6.42
2018-09-29T01:02:38.999Z,6.43
2018-09-29T01:05:42.110Z,6.42
2018-09-29T01:08:45.305Z,6.38
2018-09-29T01:11:48.398Z,6.41
2018-09-29T01:14:51.625Z,6.65
2018-09-29T01:17:54.789Z,6.56
2018-09-29T01:20:57.909Z,6.55
2018-09-29T01:24:01.094Z,6.55
2018-09-29T01:27:04.252Z,6.36
2018-09-29T01:30:07.596Z,6.23
2018-09-29T01:33:10.785Z,6.14
2018-09-29T01:36:14.264Z,6.25
2018-09-29T01:39:17.482Z,6.16
2018-09-29T01:42:20.618Z,6.28
2018-09-29T01:45:23.768Z,6.19
2018-09-29T01:48:26.859Z,6.02
2018-09-29T01:51:30.018Z,5.58
2018-09-29T01:54:33.227Z,5.93
2018-09-29T01:57:36.392Z,5.89
2018-09-29T02:00:39.613Z,6.03
2018-09-29T02:03:42.737Z,6.06
2018-09-29T02:06:45.906Z,6.12
2018-09-29T02:09:49.306Z,5.87
2018-09-29T02:12:52.442Z,5.65
2018-09-29T02:15:55.583Z,5.45
2018-09-29T02:18:58.774Z,5.69
2018-09-29T02:22:01.951Z,5.80
2018-09-29T02:25:05.209Z,5.74
2018-09-29T02:28:08.345Z,5.34
2018-09-29T02:31:11.461Z,5.33
2018-09-29T02:34:14.565Z,5.64
2018-09-29T02:37:20.142Z,5.36
2018-09-29T02:40:23.652Z,5.63
2018-09-29T02:43:26.838Z,5.66
2018-09-29T02:46:30.011Z,5.37
2018-09-29T02:49:33.140Z,5.53
2018-09-29T02:52:36.575Z,5.89
2018-09-29T02:55:39.750Z,5.64
2018-09-29T02:58:42.900Z,5.49
2018-09-29T03:01:47.055Z,5.66
2018-09-29T03:04:50.226Z,5.55
2018-09-29T03:07:53.338Z,5.46
2018-09-29T03:10:56.482Z,5.15
2018-09-29T03:13:59.588Z,5.12
2018-09-29T03:17:02.721Z,5.20
2018-09-29T03:20:05.734Z,5.35
2018-09-29T03:23:08.945Z,5.66
2018-09-29T03:26:12.143Z,5.46
2018-09-29T03:29:15.322Z,5.42
2018-09-29T03:32:18.572Z,5.46
2018-09-29T03:35:21.739Z,5.56
2018-09-29T03:38:24.867Z,5.41
2018-09-29T03:41:28.066Z,5.40
2018-09-29T03:44:31.438Z,5.37
2018-09-29T03:47:34.669Z,5.47
2018-09-29T03:50:37.794Z,5.48
2018-09-29T03:53:41.053Z,5.22
2018-09-29T03:56:44.166Z,5.13
2018-09-29T03:59:47.364Z,5.06
2018-09-29T04:02:50.557Z,4.99
2018-09-29T04:05:53.769Z,5.25
2018-09-29T04:08:56.877Z,5.21
2018-09-29T04:12:00.122Z,5.09
2018-09-29T04:15:03.641Z,5.28
2018-09-29T04:18:07.861Z,5.09
2018-09-29T04:21:11.077Z,5.02
2018-09-29T04:24:14.745Z,5.06
2018-09-29T04:27:17.933Z,4.53
2018-09-29T04:30:21.070Z,4.37
2018-09-29T04:33:24.265Z,4.37
2018-09-29T04:36:27.406Z,4.82
2018-09-29T04:39:30.623Z,4.56
2018-09-29T04:42:33.825Z,4.81
2018-09-29T04:45:37.012Z,4.82
2018-09-29T04:48:40.117Z,4.73
2018-09-29T04:51:43.288Z,4.89
2018-09-29T04:54:46.481Z,4.94
2018-09-29T04:57:50.597Z,4.62
2018-09-29T05:00:53.737Z,4.76
2018-09-29T05:03:57.876Z,4.86
2018-09-29T05:07:01.120Z,5.15
2018-09-29T05:10:05.444Z,3.77
2018-09-29T05:13:08.602Z,4.24
2018-09-29T05:16:11.857Z,4.66
2018-09-29T05:19:15.130Z,4.89
2018-09-29T05:22:18.261Z,4.71
2018-09-29T05:25:22.534Z,4.93
2018-09-29T05:28:25.665Z,4.95
2018-09-29T05:31:28.955Z,4.96
2018-09-29T05:34:32.130Z,4.65
2018-09-29T05:37:35.302Z,4.90
2018-09-29T05:40:38.580Z,4.94
2018-09-29T05:43:41.703Z,4.53
2018-09-29T05:46:44.853Z,4.33
2018-09-29T05:49:47.975Z,5.01
2018-09-29T05:52:51.372Z,5.44
2018-09-29T05:55:54.691Z,5.32
2018-09-29T05:58:59.201Z,5.56
2018-09-29T06:02:02.717Z,5.51
2018-09-29T06:05:06.049Z,5.92
2018-09-29T06:08:09.227Z,6.25
2018-09-29T06:11:13.350Z,6.82
2018-09-29T06:14:17.700Z,7.25
2018-09-29T06:17:20.856Z,7.60
2018-09-29T06:20:24.159Z,8.49
2018-09-29T06:23:28.293Z,8.78
2018-09-29T06:26:32.502Z,8.83
2018-09-29T06:29:35.809Z,9.05
2018-09-29T06:32:40.189Z,9.41
2018-09-29T06:35:43.442Z,9.93
2018-09-29T06:38:46.610Z,10.13
2018-09-29T06:41:49.804Z,10.42
2018-09-29T06:44:54.426Z,10.06
2018-09-29T06:47:58.064Z,10.04
2018-09-29T06:51:02.351Z,9.08
2018-09-29T06:54:06.370Z,8.51
2018-09-29T06:57:09.657Z,8.74
2018-09-29T07:00:12.963Z,10.05
2018-09-29T07:03:16.169Z,11.02
2018-09-29T07:06:19.393Z,8.97
2018-09-29T07:09:22.536Z,8.11
2018-09-29T07:12:25.898Z,7.81
2018-09-29T07:15:29.149Z,8.66
2018-09-29T07:18:32.311Z,9.28
2018-09-29T07:21:35.558Z,8.87
2018-09-29T07:24:38.746Z,8.33
2018-09-29T07:27:41.889Z,8.53
2018-09-29T07:30:45.122Z,8.73
2018-09-29T07:33:48.308Z,9.72
2018-09-29T07:38:01.548Z,10.17
2018-09-29T07:41:04.770Z,10.54
2018-09-29T07:44:08.342Z,10.19
2018-09-29T07:47:11.545Z,10.06
2018-09-29T07:50:14.713Z,10.76
2018-09-29T07:53:17.838Z,11.27
2018-09-29T07:56:21.056Z,11.39
2018-09-29T07:59:24.541Z,11.46
2018-09-29T08:02:27.675Z,11.27
2018-09-29T08:05:30.757Z,11.06
2018-09-29T08:08:33.882Z,11.70
2018-09-29T08:11:37.029Z,11.26
2018-09-29T08:14:40.288Z,10.84
2018-09-29T08:17:43.506Z,11.43
2018-09-29T08:20:46.651Z,11.08
2018-09-29T08:23:49.884Z,10.63
2018-09-29T08:26:52.988Z,10.40
2018-09-29T08:29:56.113Z,10.02
2018-09-29T08:32:59.254Z,10.21
2018-09-29T08:36:02.382Z,9.98
2018-09-29T08:39:07.681Z,10.90
2018-09-29T08:42:10.904Z,11.65
2018-09-29T08:45:14.048Z,11.45
2018-09-29T08:48:17.166Z,11.87
2018-09-29T08:51:20.299Z,12.01
2018-09-29T08:54:23.553Z,12.70
2018-09-29T08:57:26.690Z,11.53
2018-09-29T09:00:29.957Z,11.32
2018-09-29T09:03:33.238Z,11.38
2018-09-29T09:06:36.429Z,11.07
2018-09-29T09:09:39.617Z,11.49
2018-09-29T09:12:42.810Z,11.38
2018-09-29T09:15:46.106Z,11.59
2018-09-29T09:18:49.244Z,11.93
2018-09-29T09:21:52.324Z,11.42
2018-09-29T09:24:55.458Z,12.11
2018-09-29T09:27:58.590Z,12.72
2018-09-29T09:31:01.749Z,13.46
2018-09-29T09:34:04.958Z,13.88
2018-09-29T09:37:08.107Z,13.82
2018-09-29T09:40:11.346Z,13.04
2018-09-29T09:43:14.469Z,12.74
2018-09-29T09:46:17.599Z,12.90
2018-09-29T09:49:20.737Z,14.19
2018-09-29T09:52:23.862Z,14.20
2018-09-29T09:55:28.034Z,13.70
2018-09-29T09:58:31.217Z,14.32
2018-09-29T10:01:39.025Z,15.23
2018-09-29T10:04:42.183Z,14.40
2018-09-29T10:07:45.397Z,14.59
2018-09-29T10:10:48.466Z,14.91
2018-09-29T10:13:51.680Z,15.11
2018-09-29T10:16:54.826Z,14.46
2018-09-29T10:19:57.970Z,14.75
2018-09-29T10:23:01.077Z,13.99
2018-09-29T10:26:04.288Z,14.41
2018-09-29T10:29:07.584Z,14.93
2018-09-29T10:32:10.741Z,14.15
2018-09-29T10:35:13.957Z,15.45
2018-09-29T10:38:17.201Z,15.27
2018-09-29T10:41:20.342Z,13.99
2018-09-29T10:44:23.473Z,14.59
2018-09-29T10:47:27.721Z,15.17
2018-09-29T10:50:30.868Z,13.99
2018-09-29T10:53:33.965Z,14.55
2018-09-29T10:56:37.128Z,15.50
2018-09-29T10:59:40.338Z,15.64
2018-09-29T11:02:43.603Z,15.13
2018-09-29T11:05:46.660Z,15.08
2018-09-29T11:08:49.794Z,15.35
2018-09-29T11:11:53.998Z,16.09
2018-09-29T11:14:58.267Z,14.92
2018-09-29T11:18:01.518Z,15.16
2018-09-29T11:21:04.864Z,16.45
2018-09-29T11:24:08.052Z,16.53
2018-09-29T11:27:11.221Z,15.61
2018-09-29T11:30:14.445Z,15.85
2018-09-29T11:33:17.639Z,16.16
2018-09-29T11:36:20.768Z,16.10
2018-09-29T11:39:24.045Z,16.46
2018-09-29T11:42:27.133Z,16.64
2018-09-29T11:45:30.392Z,16.29
2018-09-29T11:48:33.559Z,16.15
2018-09-29T11:51:36.821Z,16.19
2018-09-29T11:54:40.065Z,16.78
2018-09-29T11:57:43.317Z,16.77
2018-09-29T12:00:46.645Z,16.60
2018-09-29T12:03:50.818Z,16.64
2018-09-29T12:06:53.906Z,16.06
2018-09-29T12:09:59.093Z,16.23
2018-09-29T12:13:02.779Z,16.16
2018-09-29T12:16:07.048Z,17.15
2018-09-29T12:19:10.321Z,17.46
2018-09-29T12:22:13.565Z,16.89
2018-09-29T12:25:16.826Z,17.06
2018-09-29T12:28:19.974Z,17.99
2018-09-29T12:31:23.214Z,17.54
2018-09-29T12:34:26.364Z,18.42
2018-09-29T12:37:29.541Z,18.33
2018-09-29T12:40:32.615Z,18.01
2018-09-29T12:43:36.118Z,18.68
2018-09-29T12:46:39.241Z,17.80
2018-09-29T12:49:42.341Z,18.14
2018-09-29T12:52:45.486Z,17.60
2018-09-29T12:55:48.678Z,16.74
2018-09-29T12:58:51.835Z,15.66
2018-09-29T13:01:54.995Z,16.82
2018-09-29T13:04:58.274Z,17.45
2018-09-29T13:08:01.458Z,16.87
2018-09-29T13:11:04.804Z,17.74
2018-09-29T13:14:07.899Z,18.24
2018-09-29T13:17:12.173Z,18.64
2018-09-29T13:20:15.480Z,18.05
2018-09-29T13:23:18.694Z,16.95
2018-09-29T13:26:21.943Z,17.83
2018-09-29T13:29:25.136Z,16.96
2018-09-29T13:32:28.315Z,17.51
2018-09-29T13:35:31.469Z,18.79
2018-09-29T13:38:34.960Z,18.59
2018-09-29T13:41:38.187Z,18.80
2018-09-29T13:44:41.403Z,18.55
2018-09-29T13:47:44.669Z,19.07
2018-09-29T13:50:47.853Z,19.22
2018-09-29T13:53:51.045Z,18.77
2018-09-29T13:56:54.249Z,17.89
2018-09-29T13:59:57.453Z,17.98
2018-09-29T14:03:00.644Z,18.33
2018-09-29T14:06:03.849Z,18.82
2018-09-29T14:09:08.963Z,18.79
2018-09-29T14:12:12.161Z,17.95
2018-09-29T14:15:15.579Z,17.71
2018-09-29T14:18:18.757Z,18.28
2018-09-29T14:21:21.952Z,18.58
2018-09-29T14:24:25.145Z,17.84
2018-09-29T14:27:28.345Z,18.57
2018-09-29T14:30:31.538Z,19.04
2018-09-29T14:33:34.731Z,19.45
2018-09-29T14:36:37.895Z,19.91
2018-09-29T14:39:41.108Z,19.10
2018-09-29T14:42:44.316Z,18.40
2018-09-29T14:45:47.516Z,19.24
2018-09-29T14:48:50.696Z,18.29
2018-09-29T14:51:53.904Z,17.55
2018-09-29T14:54:57.196Z,18.65
2018-09-29T14:58:00.373Z,18.58
2018-09-29T15:01:03.706Z,19.03
2018-09-29T15:04:07.079Z,19.58
2018-09-29T15:07:10.237Z,19.73
2018-09-29T15:10:13.522Z,19.16
2018-09-29T15:13:16.641Z,19.01
2018-09-29T15:16:19.861Z,18.80
2018-09-29T15:19:23.140Z,18.99
2018-09-29T15:22:26.368Z,18.85
2018-09-29T15:25:30.562Z,18.52
2018-09-29T15:28:33.797Z,19.42
2018-09-29T15:31:36.961Z,19.17
2018-09-29T15:34:40.181Z,18.66
2018-09-29T15:37:43.442Z,18.20
2018-09-29T15:40:46.597Z,18.76
2018-09-29T15:43:51.744Z,19.02
2018-09-29T15:46:55.820Z,18.81
2018-09-29T15:49:59.961Z,18.37
2018-09-29T15:53:03.162Z,17.90
2018-09-29T15:56:06.397Z,18.25
2018-09-29T15:59:10.449Z,19.06
2018-09-29T16:02:13.692Z,18.92
2018-09-29T16:05:16.899Z,18.98
2018-09-29T16:08:20.110Z,18.48
2018-09-29T16:11:23.266Z,17.88
2018-09-29T16:14:26.442Z,17.42
2018-09-29T16:17:29.738Z,17.33
2018-09-29T16:20:32.940Z,17.75
2018-09-29T16:23:36.157Z,17.24
2018-09-29T16:26:42.610Z,16.70
2018-09-29T16:29:45.754Z,17.16
2018-09-29T16:32:49.878Z,17.30
2018-09-29T16:35:53.569Z,16.70
2018-09-29T16:38:56.905Z,16.62
2018-09-29T16:42:00.154Z,17.10
2018-09-29T16:45:05.430Z,17.36
2018-09-29T16:48:08.727Z,17.24
2018-09-29T16:51:11.911Z,16.95
2018-09-29T16:54:15.118Z,16.44
2018-09-29T16:57:18.326Z,15.83
2018-09-29T17:00:21.518Z,15.41
2018-09-29T17:03:24.793Z,15.09
2018-09-29T17:06:27.950Z,14.52
2018-09-29T17:09:31.105Z,14.21
2018-09-29T17:12:34.464Z,13.74
2018-09-29T17:15:37.660Z,13.80
2018-09-29T17:18:40.867Z,13.03
2018-09-29T17:21:45.083Z,12.46
2018-09-29T17:24:52.541Z,12.40
2018-09-29T17:27:59.510Z,12.04
2018-09-29T17:31:03.159Z,12.15
2018-09-29T17:34:06.360Z,11.94
2018-09-29T17:37:09.511Z,11.82
2018-09-29T17:40:12.847Z,11.95
2018-09-29T17:43:16.091Z,11.80
2018-09-29T17:46:19.398Z,11.98
2018-09-29T17:49:22.798Z,11.86
2018-09-29T17:52:26.135Z,11.68
2018-09-29T17:55:30.345Z,11.52
2018-09-29T17:58:33.625Z,11.31
2018-09-29T18:01:36.910Z,11.04
2018-09-29T18:04:43.555Z,10.93
2018-09-29T18:07:46.785Z,10.98
2018-09-29T18:25:11.732Z,10.55
2018-09-29T18:42:23.407Z,9.79
2018-09-29T23:51:09.085Z,5.11
2018-09-29T23:54:12.227Z,5.32
2018-09-29T23:57:15.479Z,5.78
